Time;durP1;ratioP1;P1;durP2;ratioP2;P2;SDS_P1;SDS_P2;PMS_P1;PMS_P2;Temp;Humidity;BMP_temperature;BMP_pressure;BME280_temperature;BME280_humidity;BME280_pressure;Samples;Min_cycle;Max_cycle;Signal;HPM_P1;HPM_P2
2021/03/06 00:00:10;;;;;;;6.38;2.35;;;-3274.20;89.00;;;;;;4981468;28;20109;-70
2021/03/06 00:02:36;;;;;;;9.25;2.85;;;-3274.20;88.80;;;;;;4983813;28;20456;-67
2021/03/06 00:05:02;;;;;;;12.27;3.22;;;-3274.10;88.90;;;;;;4980091;28;20403;-67
2021/03/06 00:07:28;;;;;;;6.55;2.60;;;-3274.00;88.70;;;;;;4981428;28;20034;-68
2021/03/06 00:09:54;;;;;;;8.68;2.58;;;-3273.90;89.00;;;;;;4976557;28;20049;-67
2021/03/06 00:12:19;;;;;;;11.40;2.47;;;-3273.90;89.20;;;;;;4979389;28;20030;-68
2021/03/06 00:14:45;;;;;;;7.95;2.58;;;-3273.90;89.20;;;;;;4983248;28;20126;-68
2021/03/06 00:17:10;;;;;;;10.50;2.75;;;-3273.90;89.50;;;;;;4983102;28;20034;-69
2021/03/06 00:19:36;;;;;;;11.35;3.00;;;-3274.00;89.70;;;;;;4979639;28;20031;-67
2021/03/06 00:22:02;;;;;;;10.65;3.10;;;-3274.10;90.30;;;;;;4985032;28;20038;-67
2021/03/06 00:24:28;;;;;;;10.45;3.40;;;-3274.30;90.30;;;;;;4975370;28;20414;-67
2021/03/06 00:26:54;;;;;;;14.52;2.90;;;-3274.30;90.20;;;;;;4982791;28;20088;-67
2021/03/06 00:29:20;;;;;;;9.82;3.05;;;-3274.20;89.90;;;;;;4980221;28;20034;-66
2021/03/06 00:31:46;;;;;;;16.17;2.80;;;-3274.30;90.00;;;;;;4978177;28;20041;-67
2021/03/06 00:34:11;;;;;;;11.13;2.85;;;-3274.30;89.90;;;;;;4978861;28;20109;-69
2021/03/06 00:36:37;;;;;;;8.25;2.80;;;-3274.30;90.10;;;;;;4979743;28;20038;-69
2021/03/06 00:39:05;;;;;;;18.23;2.83;;;-3274.30;90.10;;;;;;4981544;28;20135;-68
2021/03/06 00:41:31;;;;;;;14.20;3.08;;;-3274.20;90.30;;;;;;4982859;28;20034;-67
2021/03/06 00:43:57;;;;;;;9.40;2.78;;;-3274.10;90.00;;;;;;4975588;28;20031;-67
2021/03/06 00:46:23;;;;;;;5.97;2.67;;;-3274.00;90.20;;;;;;4984636;28;20036;-68
2021/03/06 00:48:48;;;;;;;12.15;2.72;;;-3274.00;90.10;;;;;;4975545;28;20121;-68
2021/03/06 00:51:14;;;;;;;6.38;3.03;;;-3273.80;90.00;;;;;;4983549;28;20159;-68
2021/03/06 00:53:39;;;;;;;12.05;2.33;;;-3273.70;90.00;;;;;;4981330;28;20038;-68
2021/03/06 00:56:05;;;;;;;11.88;3.28;;;-3273.60;90.10;;;;;;4978783;28;20269;-68
2021/03/06 00:58:31;;;;;;;7.47;2.70;;;-3273.50;90.30;;;;;;4978978;28;20045;-69
2021/03/06 01:00:57;;;;;;;17.73;2.72;;;-3273.50;90.30;;;;;;4979414;28;20475;-67
2021/03/06 01:03:22;;;;;;;10.43;2.97;;;-3273.50;90.70;;;;;;4982694;28;20089;-67
2021/03/06 01:05:48;;;;;;;11.45;2.58;;;-3273.50;91.10;;;;;;4977232;28;20035;-67
2021/03/06 01:08:13;;;;;;;17.48;3.40;;;-3273.70;91.50;;;;;;4981162;28;20502;-69
2021/03/06 01:10:42;;;;;;;12.02;2.90;;;-3273.80;91.80;;;;;;4979602;28;20031;-67
2021/03/06 01:13:09;;;;;;;14.25;2.72;;;-3273.90;91.80;;;;;;4978832;28;20277;-69
2021/03/06 01:15:35;;;;;;;8.65;2.58;;;-3273.90;91.70;;;;;;4979843;28;20060;-66
2021/03/06 01:18:02;;;;;;;12.00;3.15;;;-3273.90;91.70;;;;;;4978663;28;20018;-67
2021/03/06 01:20:28;;;;;;;10.65;3.22;;;-3273.80;91.50;;;;;;4983432;28;20302;-67
2021/03/06 01:22:54;;;;;;;13.80;2.72;;;-3273.60;91.30;;;;;;4982096;28;20477;-67
2021/03/06 01:25:20;;;;;;;9.45;2.67;;;-3273.60;91.30;;;;;;4977176;28;20032;-67
2021/03/06 01:27:45;;;;;;;18.23;3.47;;;-3273.60;91.40;;;;;;4983719;28;20483;-67
2021/03/06 01:30:12;;;;;;;17.42;3.20;;;-3273.50;91.20;;;;;;4983078;28;20019;-68
2021/03/06 01:32:38;;;;;;;11.57;2.60;;;-3273.50;91.20;;;;;;4985719;28;20019;-70
2021/03/06 01:35:05;;;;;;;9.45;2.58;;;-3273.40;91.20;;;;;;4986454;28;20034;-69
2021/03/06 01:37:31;;;;;;;15.38;3.38;;;-3273.40;91.40;;;;;;4988025;28;20026;-68
2021/03/06 01:39:57;;;;;;;7.88;2.75;;;-3273.30;91.60;;;;;;4981372;28;20595;-68
2021/03/06 01:42:24;;;;;;;13.48;3.10;;;-3273.30;91.80;;;;;;4987732;28;20030;-67
2021/03/06 01:44:51;;;;;;;16.15;3.30;;;-3273.40;92.10;;;;;;4982629;28;20042;-69
2021/03/06 01:47:17;;;;;;;13.55;3.50;;;-3273.50;92.50;;;;;;4986162;28;20022;-69
2021/03/06 01:49:43;;;;;;;12.05;2.75;;;-3273.60;92.60;;;;;;4982646;28;20038;-68
2021/03/06 01:52:08;;;;;;;9.07;3.00;;;-3273.70;92.60;;;;;;4984822;28;20030;-67
2021/03/06 01:54:36;;;;;;;10.00;2.90;;;-3273.70;92.60;;;;;;4984555;28;20030;-68
2021/03/06 01:57:02;;;;;;;9.57;2.80;;;-3273.80;92.60;;;;;;4984248;28;20022;-68
2021/03/06 01:59:28;;;;;;;13.32;2.90;;;-3273.80;92.60;;;;;;4982427;28;20030;-68
2021/03/06 02:01:54;;;;;;;11.20;2.85;;;-3273.80;92.50;;;;;;4983694;28;20035;-67
2021/03/06 02:04:19;;;;;;;13.15;3.17;;;-3273.60;91.80;;;;;;4986184;28;20152;-69
2021/03/06 02:06:45;;;;;;;9.52;2.85;;;-3273.50;91.30;;;;;;4984223;28;20038;-67
2021/03/06 02:09:11;;;;;;;13.02;2.88;;;-3273.50;91.50;;;;;;4980657;28;20026;-68
2021/03/06 02:11:47;;;;;;;10.18;2.95;;;-3273.50;91.70;;;;;;4978959;28;20057;-68
2021/03/06 02:14:43;;;;;;;8.70;2.70;;;-3273.60;92.10;;;;;;4974334;28;20486;-68
2021/03/06 02:17:29;;;;;;;16.42;2.72;;;-3273.70;92.40;;;;;;4979667;28;20438;-69
2021/03/06 02:20:29;;;;;;;8.43;2.58;;;-3273.70;92.70;;;;;;4983825;28;20034;-67
2021/03/06 02:23:26;;;;;;;14.75;2.88;;;-3273.70;92.30;;;;;;4970807;28;20419;-69
2021/03/06 02:26:20;;;;;;;9.18;2.53;;;-3273.80;92.60;;;;;;4981131;28;20596;-68
2021/03/06 02:29:16;;;;;;;7.65;2.78;;;-3273.80;92.60;;;;;;4985312;28;20435;-67
2021/03/06 02:31:43;;;;;;;16.92;2.95;;;-3274.00;93.00;;;;;;4982305;28;20511;-67
2021/03/06 02:34:15;;;;;;;15.00;3.28;;;-3274.20;93.10;;;;;;4981028;28;20066;-69
2021/03/06 02:36:52;;;;;;;8.57;2.92;;;-3274.30;93.00;;;;;;4982825;28;20030;-68
2021/03/06 02:39:21;;;;;;;13.05;3.30;;;-3274.30;92.90;;;;;;4973993;28;20105;-69
2021/03/06 02:41:48;;;;;;;11.05;3.80;;;-3274.20;92.70;;;;;;4988873;28;20568;-68
2021/03/06 02:44:15;;;;;;;12.32;2.92;;;-3274.20;92.70;;;;;;4975861;28;20045;-68
2021/03/06 02:46:43;;;;;;;8.40;2.95;;;-3274.10;92.80;;;;;;4986354;28;20390;-67
2021/03/06 02:49:08;;;;;;;16.73;3.45;;;-3274.20;92.90;;;;;;4975900;28;20023;-67
2021/03/06 02:51:38;;;;;;;17.27;3.40;;;-3274.10;92.90;;;;;;4982745;28;20030;-69
2021/03/06 02:54:05;;;;;;;12.48;3.03;;;-3274.10;93.00;;;;;;4988363;28;20034;-68
2021/03/06 02:56:31;;;;;;;10.48;3.00;;;-3274.10;92.90;;;;;;4980842;28;20058;-68
2021/03/06 02:59:17;;;;;;;13.68;3.50;;;-3274.00;92.80;;;;;;4972389;28;20039;-67
2021/03/06 03:01:58;;;;;;;12.18;3.67;;;-3274.00;92.80;;;;;;4979959;28;20027;-67
2021/03/06 03:04:33;;;;;;;11.23;3.40;;;-3273.90;92.80;;;;;;4976283;28;20034;-66
2021/03/06 03:07:11;;;;;;;14.75;3.33;;;-3273.90;92.80;;;;;;4975382;28;20034;-68
2021/03/06 03:09:42;;;;;;;13.20;2.92;;;-3273.70;92.50;;;;;;4972206;28;20406;-69
2021/03/06 03:12:38;;;;;;;12.23;3.20;;;-3273.70;92.40;;;;;;4977130;28;20042;-68
2021/03/06 03:15:15;;;;;;;14.73;3.78;;;-3273.70;92.50;;;;;;4973293;28;20058;-68
2021/03/06 03:17:43;;;;;;;20.58;3.80;;;-3273.70;92.70;;;;;;4986835;28;20022;-68
2021/03/06 03:20:12;;;;;;;9.40;3.00;;;-3273.70;93.00;;;;;;4985809;28;20046;-67
2021/03/06 03:22:41;;;;;;;15.02;3.20;;;-3273.70;93.10;;;;;;4984714;28;20033;-68
2021/03/06 03:25:09;;;;;;;11.77;3.72;;;-3273.70;93.20;;;;;;4970690;28;20131;-67
2021/03/06 03:27:37;;;;;;;14.82;3.92;;;-3273.70;93.30;;;;;;4984656;28;20097;-67
2021/03/06 03:30:08;;;;;;;15.88;4.05;;;-3273.80;93.40;;;;;;4975064;28;20026;-66
2021/03/06 03:32:35;;;;;;;11.95;3.30;;;-3273.90;93.50;;;;;;4986979;28;20146;-67
2021/03/06 03:35:03;;;;;;;12.27;3.55;;;-3274.00;93.60;;;;;;4980153;28;20026;-68
2021/03/06 03:37:29;;;;;;;11.43;3.80;;;-3274.10;93.50;;;;;;4976995;28;20019;-68
2021/03/06 03:39:56;;;;;;;9.65;3.35;;;-3274.20;93.40;;;;;;4977764;28;20658;-67
2021/03/06 03:42:22;;;;;;;17.35;3.92;;;-3274.20;93.30;;;;;;4975799;28;20022;-67
2021/03/06 03:44:48;;;;;;;16.38;3.28;;;-3274.20;93.00;;;;;;4970949;28;20125;-68
2021/03/06 03:47:17;;;;;;;18.65;4.00;;;-3274.20;93.00;;;;;;4984400;28;20045;-67
2021/03/06 03:49:43;;;;;;;11.73;3.17;;;-3274.20;93.10;;;;;;4980380;28;20554;-67
2021/03/06 03:52:10;;;;;;;9.35;2.97;;;-3274.30;93.20;;;;;;4977053;28;20072;-66
2021/03/06 03:54:35;;;;;;;8.52;3.10;;;-3274.20;93.10;;;;;;4975724;28;20026;-69
2021/03/06 03:57:03;;;;;;;12.77;3.58;;;-3274.20;93.10;;;;;;4991816;28;20038;-66
2021/03/06 03:59:28;;;;;;;10.65;3.78;;;-3274.20;93.00;;;;;;4974447;28;20102;-66
2021/03/06 04:01:54;;;;;;;8.13;3.03;;;-3274.20;93.20;;;;;;4982915;28;20499;-68
2021/03/06 04:04:30;;;;;;;14.15;3.55;;;-3274.20;93.10;;;;;;4968903;28;20039;-66
2021/03/06 04:06:57;;;;;;;8.90;3.13;;;-3274.20;93.10;;;;;;5000355;28;20042;-66
2021/03/06 04:09:24;;;;;;;17.00;3.75;;;-3274.30;93.10;;;;;;4982706;28;20039;-66
2021/03/06 04:11:50;;;;;;;11.90;3.65;;;-3274.30;92.90;;;;;;4981257;28;20388;-66
2021/03/06 04:14:16;;;;;;;13.90;2.65;;;-3274.50;93.00;;;;;;4969708;28;20118;-67
2021/03/06 04:16:42;;;;;;;8.85;3.15;;;-3274.60;92.80;;;;;;4986543;28;20097;-66
2021/03/06 04:19:08;;;;;;;9.45;3.22;;;-3274.70;92.80;;;;;;4977076;28;20410;-67
2021/03/06 04:21:33;;;;;;;10.32;3.30;;;-3274.80;92.90;;;;;;4978971;28;20027;-67
2021/03/06 04:23:59;;;;;;;9.30;2.95;;;-3274.90;92.70;;;;;;4985193;28;20030;-67
2021/03/06 04:26:25;;;;;;;6.82;3.00;;;-3275.00;92.50;;;;;;4976245;28;20082;-66
2021/03/06 04:28:50;;;;;;;9.68;3.05;;;-3275.00;92.50;;;;;;4980919;28;20022;-66
2021/03/06 04:31:16;;;;;;;13.38;3.03;;;-3275.10;92.50;;;;;;4977586;28;20022;-66
2021/03/06 04:33:42;;;;;;;10.02;2.88;;;-3275.10;92.40;;;;;;4974185;28;20037;-68
2021/03/06 04:36:08;;;;;;;13.70;3.00;;;-3275.20;92.40;;;;;;4980901;28;20023;-66
2021/03/06 04:38:34;;;;;;;13.45;3.70;;;-3275.20;92.40;;;;;;4981222;28;20049;-65
2021/03/06 04:41:00;;;;;;;8.23;3.08;;;-3275.30;92.50;;;;;;4998017;28;20399;-67
2021/03/06 04:43:26;;;;;;;15.00;3.10;;;-3275.30;92.60;;;;;;4982776;28;20037;-66
2021/03/06 04:45:51;;;;;;;11.50;3.85;;;-3275.40;92.60;;;;;;4975186;28;20023;-66
2021/03/06 04:48:17;;;;;;;11.88;3.63;;;-3275.40;92.70;;;;;;4978885;28;20538;-67
2021/03/06 04:50:42;;;;;;;14.75;3.00;;;-3275.50;92.70;;;;;;4980810;28;20521;-66
2021/03/06 04:53:08;;;;;;;10.60;3.20;;;-3275.50;92.70;;;;;;4980747;28;20483;-66
2021/03/06 04:55:33;;;;;;;7.53;3.20;;;-3275.60;92.70;;;;;;4974906;28;20029;-66
2021/03/06 04:57:59;;;;;;;7.28;2.67;;;-3275.60;92.70;;;;;;4982341;28;20583;-66
2021/03/06 05:00:25;;;;;;;8.45;2.70;;;-3275.60;92.60;;;;;;4978077;28;20022;-66
2021/03/06 05:02:51;;;;;;;12.27;3.80;;;-3275.70;92.70;;;;;;4981654;28;20030;-66
2021/03/06 05:05:17;;;;;;;13.00;3.28;;;-3275.70;92.80;;;;;;4980904;28;20037;-66
2021/03/06 05:07:42;;;;;;;17.80;3.47;;;-3275.80;92.80;;;;;;4986291;28;20033;-66
2021/03/06 05:10:08;;;;;;;13.82;3.40;;;-3275.80;92.90;;;;;;4986349;28;20590;-66
2021/03/06 05:12:35;;;;;;;19.15;4.10;;;-3275.80;92.90;;;;;;4975629;28;20388;-67
2021/03/06 05:15:00;;;;;;;9.48;3.00;;;-3275.90;93.10;;;;;;4983504;28;20476;-67
2021/03/06 05:17:26;;;;;;;9.80;3.28;;;-3275.90;93.10;;;;;;4979819;28;20035;-65
2021/03/06 05:19:52;;;;;;;13.48;3.65;;;-3275.90;93.20;;;;;;4985762;28;20033;-66
2021/03/06 05:22:17;;;;;;;13.25;3.38;;;-3276.00;93.40;;;;;;4978359;28;20105;-67
2021/03/06 05:24:44;;;;;;;11.90;3.55;;;-3276.10;93.50;;;;;;4971416;28;20038;-67
2021/03/06 05:27:10;;;;;;;10.60;4.15;;;-3276.10;93.50;;;;;;4980988;28;20062;-65
2021/03/06 05:29:35;;;;;;;10.93;3.55;;;-3276.20;93.60;;;;;;4985045;28;20533;-68
2021/03/06 05:32:04;;;;;;;17.42;4.15;;;-3276.20;93.80;;;;;;4985437;28;20030;-67
2021/03/06 05:34:30;;;;;;;12.63;4.25;;;-3276.30;93.90;;;;;;4977479;28;20034;-67
2021/03/06 05:36:56;;;;;;;14.88;4.45;;;-3276.30;94.10;;;;;;4986189;28;20022;-68
2021/03/06 05:39:22;;;;;;;17.08;4.40;;;-3276.30;94.30;;;;;;4972749;28;20150;-67
2021/03/06 05:41:47;;;;;;;12.30;3.83;;;-3276.30;94.60;;;;;;4985849;28;20109;-67
2021/03/06 05:44:14;;;;;;;19.25;4.38;;;-3276.30;94.50;;;;;;4981312;28;20036;-69
2021/03/06 05:46:43;;;;;;;14.30;4.47;;;-3276.30;94.60;;;;;;4984084;28;20034;-68
2021/03/06 05:49:09;;;;;;;14.70;4.30;;;-3276.40;94.70;;;;;;4983141;28;20113;-68
2021/03/06 05:51:36;;;;;;;10.23;4.03;;;-3276.50;94.70;;;;;;4980808;28;20165;-69
2021/03/06 05:54:07;;;;;;;13.48;3.78;;;-3276.60;94.70;;;;;;4987352;28;20061;-67
2021/03/06 05:56:38;;;;;;;12.13;4.33;;;-3276.60;94.50;;;;;;4978968;28;20412;-68
2021/03/06 05:59:04;;;;;;;16.90;3.88;;;-3276.70;94.60;;;;;;4976846;28;20034;-68
2021/03/06 06:01:31;;;;;;;10.40;3.72;;;-3276.70;94.60;;;;;;4975807;28;20026;-67
2021/03/06 06:04:04;;;;;;;13.25;4.53;;;0.00;94.60;;;;;;4988208;28;20073;-68
2021/03/06 06:06:34;;;;;;;9.63;4.10;;;0.00;94.50;;;;;;4974210;28;20120;-69
2021/03/06 06:09:00;;;;;;;11.23;3.67;;;0.00;94.50;;;;;;4979600;28;20070;-67
2021/03/06 06:11:28;;;;;;;12.82;3.58;;;0.10;94.40;;;;;;4973882;28;20672;-67
2021/03/06 06:13:55;;;;;;;17.90;3.92;;;0.10;94.30;;;;;;4972867;28;20030;-69
2021/03/06 06:16:21;;;;;;;12.13;4.10;;;0.20;94.30;;;;;;4975329;28;20811;-67
2021/03/06 06:18:49;;;;;;;11.02;3.47;;;0.10;94.20;;;;;;4981839;28;20026;-66
2021/03/06 06:21:34;;;;;;;11.15;3.80;;;0.20;94.30;;;;;;4986807;28;20542;-67
2021/03/06 06:24:17;;;;;;;10.60;3.65;;;0.30;94.20;;;;;;4981841;28;20651;-68
2021/03/06 06:26:53;;;;;;;9.00;3.70;;;0.30;94.10;;;;;;4978469;28;20038;-68
2021/03/06 06:29:33;;;;;;;14.07;3.60;;;0.30;94.10;;;;;;4983906;28;20034;-69
2021/03/06 06:31:59;;;;;;;15.88;3.80;;;0.30;94.10;;;;;;4975312;28;20113;-67
2021/03/06 06:34:25;;;;;;;12.25;3.90;;;0.40;94.10;;;;;;4975252;28;20030;-68
2021/03/06 06:36:50;;;;;;;13.48;3.97;;;0.40;94.10;;;;;;4978794;28;20031;-68
2021/03/06 06:39:30;;;;;;;7.32;2.90;;;0.50;94.00;;;;;;4981227;28;20392;-66
2021/03/06 06:41:58;;;;;;;8.13;3.10;;;0.60;93.90;;;;;;4978371;28;20027;-67
2021/03/06 06:44:26;;;;;;;9.18;2.95;;;0.60;93.80;;;;;;4977031;28;20594;-67
2021/03/06 06:46:53;;;;;;;10.55;3.75;;;0.60;93.80;;;;;;4978107;28;20026;-67
2021/03/06 06:49:19;;;;;;;12.57;3.15;;;0.70;93.70;;;;;;4976002;28;20496;-69
2021/03/06 06:52:05;;;;;;;9.57;2.95;;;0.80;93.60;;;;;;4981663;28;20045;-67
2021/03/06 06:54:33;;;;;;;10.18;3.70;;;0.80;93.40;;;;;;4981544;28;20031;-68
2021/03/06 06:57:17;;;;;;;6.88;2.97;;;0.90;93.40;;;;;;4980575;28;20511;-69
2021/03/06 07:00:12;;;;;;;13.43;2.88;;;0.80;93.40;;;;;;4977201;28;20545;-69
2021/03/06 07:02:54;;;;;;;7.80;2.75;;;0.90;93.40;;;;;;4986956;28;20120;-67
2021/03/06 07:05:27;;;;;;;9.25;3.40;;;0.90;93.40;;;;;;4970695;28;20030;-67
2021/03/06 07:07:53;;;;;;;15.57;3.70;;;0.90;93.40;;;;;;4983625;28;20174;-68
2021/03/06 07:10:20;;;;;;;10.15;3.40;;;1.00;93.40;;;;;;4971513;28;20141;-67
2021/03/06 07:13:09;;;;;;;8.73;3.25;;;1.00;93.40;;;;;;4976026;28;20503;-67
2021/03/06 07:15:36;;;;;;;4.68;2.45;;;1.00;93.40;;;;;;4976690;28;20054;-67
2021/03/06 07:18:04;;;;;;;9.00;3.00;;;1.00;93.40;;;;;;4989606;28;20038;-70
2021/03/06 07:20:35;;;;;;;7.57;2.88;;;1.10;93.40;;;;;;4972109;28;20030;-69
2021/03/06 07:23:17;;;;;;;12.73;2.63;;;1.30;93.20;;;;;;4978573;28;20022;-67
2021/03/06 07:25:43;;;;;;;7.55;2.90;;;1.40;92.90;;;;;;4980400;28;20301;-68
2021/03/06 07:28:09;;;;;;;10.93;2.67;;;1.40;92.70;;;;;;4980924;28;20305;-67
2021/03/06 07:30:36;;;;;;;8.82;2.83;;;1.30;92.80;;;;;;4978620;28;20084;-69
2021/03/06 07:33:05;;;;;;;11.52;3.17;;;1.40;92.90;;;;;;4983026;28;20018;-68
2021/03/06 07:35:41;;;;;;;14.38;3.15;;;1.50;92.80;;;;;;4980189;28;20148;-67
2021/03/06 07:38:09;;;;;;;8.25;2.85;;;1.50;92.70;;;;;;4972857;28;20377;-68
2021/03/06 07:40:42;;;;;;;14.63;3.15;;;1.60;92.50;;;;;;4972233;28;20085;-67
2021/03/06 07:43:14;;;;;;;13.50;2.80;;;1.60;92.40;;;;;;4976168;28;20015;-66
2021/03/06 07:45:48;;;;;;;13.38;3.47;;;1.70;92.50;;;;;;4978412;28;20430;-68
2021/03/06 07:48:16;;;;;;;13.25;3.38;;;1.80;92.20;;;;;;4976881;28;20081;-69
2021/03/06 07:50:45;;;;;;;9.23;2.97;;;1.90;92.20;;;;;;4983430;28;20034;-69
2021/03/06 07:53:13;;;;;;;12.77;2.65;;;2.00;91.90;;;;;;4976660;28;20023;-70
2021/03/06 07:55:39;;;;;;;11.15;2.97;;;2.10;91.70;;;;;;4975176;28;20483;-67
2021/03/06 07:58:12;;;;;;;9.45;2.65;;;2.10;91.50;;;;;;4976632;28;20077;-68
2021/03/06 08:00:39;;;;;;;7.25;2.53;;;2.30;91.50;;;;;;4981126;28;20623;-67
2021/03/06 08:03:28;;;;;;;12.18;2.60;;;2.30;91.10;;;;;;4976996;28;20026;-68
2021/03/06 08:05:58;;;;;;;8.68;2.40;;;2.40;91.30;;;;;;4977888;28;20038;-68
2021/03/06 08:08:32;;;;;;;11.10;2.53;;;2.40;91.40;;;;;;4978859;28;20483;-69
2021/03/06 08:11:11;;;;;;;5.22;2.10;;;2.30;92.00;;;;;;4982190;28;20458;-68
2021/03/06 08:13:54;;;;;;;6.88;2.13;;;2.20;92.20;;;;;;4981969;28;20535;-67
2021/03/06 08:16:20;;;;;;;12.25;2.95;;;2.20;92.50;;;;;;4976501;28;20030;-68
2021/03/06 08:18:47;;;;;;;8.00;2.55;;;2.10;92.80;;;;;;4984991;28;20307;-69
2021/03/06 08:21:35;;;;;;;8.68;2.67;;;2.20;93.10;;;;;;4999487;28;20030;-67
2021/03/06 08:24:15;;;;;;;8.05;2.95;;;2.20;93.10;;;;;;4997301;28;20072;-70
2021/03/06 08:27:02;;;;;;;13.52;3.35;;;2.40;93.30;;;;;;4998829;28;20060;-69
2021/03/06 08:29:28;;;;;;;13.05;2.60;;;2.40;93.20;;;;;;5000007;28;20119;-66
2021/03/06 08:31:57;;;;;;;10.23;2.38;;;2.50;92.90;;;;;;4999812;28;20104;-71
2021/03/06 08:34:45;;;;;;;8.68;2.78;;;2.60;92.90;;;;;;5000378;28;20034;-68
2021/03/06 08:37:17;;;;;;;7.13;2.80;;;2.60;92.80;;;;;;4994603;28;20034;-67
2021/03/06 08:40:09;;;;;;;6.55;2.92;;;2.60;92.70;;;;;;5002038;28;20061;-70
2021/03/06 08:42:45;;;;;;;9.50;3.63;;;2.80;92.80;;;;;;5004901;28;20026;-67
2021/03/06 08:45:17;;;;;;;7.78;3.28;;;2.90;92.40;;;;;;4996667;28;20050;-67
2021/03/06 08:47:46;;;;;;;8.75;3.35;;;3.00;92.10;;;;;;4995879;28;20243;-66
2021/03/06 08:50:16;;;;;;;6.18;2.80;;;2.90;91.80;;;;;;5000837;28;20037;-66
2021/03/06 08:52:51;;;;;;;12.88;3.10;;;3.00;91.90;;;;;;5004091;28;20098;-67
2021/03/06 08:55:22;;;;;;;8.50;2.90;;;2.90;92.10;;;;;;4998334;28;20041;-69
2021/03/06 08:57:48;;;;;;;10.35;3.42;;;2.90;92.20;;;;;;4996844;28;20708;-67
2021/03/06 09:00:29;;;;;;;8.55;3.25;;;3.10;92.30;;;;;;4998247;28;20053;-67
2021/03/06 09:02:55;;;;;;;10.70;3.55;;;3.10;92.20;;;;;;4999895;28;20426;-68
2021/03/06 09:05:28;;;;;;;9.82;3.40;;;3.10;92.00;;;;;;4999814;28;20597;-69
2021/03/06 09:07:55;;;;;;;10.38;3.70;;;3.10;92.00;;;;;;4997261;28;20117;-68
2021/03/06 09:10:36;;;;;;;9.38;3.47;;;3.10;91.90;;;;;;4992018;28;20034;-66
2021/03/06 09:13:18;;;;;;;12.48;3.90;;;3.10;91.90;;;;;;5000991;28;20034;-69
2021/03/06 09:16:04;;;;;;;10.15;3.53;;;3.10;91.70;;;;;;5001687;28;20049;-67
2021/03/06 09:18:32;;;;;;;7.10;3.45;;;3.20;92.00;;;;;;4995334;28;20160;-67
2021/03/06 09:21:05;;;;;;;14.98;3.78;;;3.30;91.70;;;;;;4998223;28;20029;-68
2021/03/06 09:23:36;;;;;;;12.70;3.70;;;3.30;91.80;;;;;;4997695;28;20522;-67
2021/03/06 09:26:09;;;;;;;14.10;3.35;;;3.30;91.80;;;;;;5003087;28;20534;-67
2021/03/06 09:28:35;;;;;;;12.05;3.30;;;3.40;91.90;;;;;;4999024;28;20049;-69
2021/03/06 09:31:04;;;;;;;7.45;3.22;;;3.50;91.80;;;;;;5003333;28;20037;-68
2021/03/06 09:33:35;;;;;;;7.45;3.63;;;3.50;91.60;;;;;;5003207;28;20128;-72
2021/03/06 09:36:07;;;;;;;8.40;3.35;;;3.50;91.50;;;;;;5001133;28;20018;-71
2021/03/06 09:38:41;;;;;;;10.40;4.40;;;3.40;91.60;;;;;;4997312;28;20433;-68
2021/03/06 09:41:08;;;;;;;7.10;3.17;;;3.40;91.90;;;;;;5000696;28;20590;-67
2021/03/06 09:43:35;;;;;;;6.97;3.10;;;3.30;91.90;;;;;;5002202;28;20494;-69
2021/03/06 09:46:03;;;;;;;6.57;2.65;;;3.40;92.50;;;;;;5000408;28;20034;-67
2021/03/06 09:48:29;;;;;;;5.28;2.80;;;3.40;92.40;;;;;;5002335;28;20026;-68
2021/03/06 09:50:58;;;;;;;6.88;3.45;;;3.40;92.80;;;;;;5004050;28;20044;-67
2021/03/06 09:53:26;;;;;;;8.73;2.60;;;3.50;93.00;;;;;;5001868;28;20141;-69
2021/03/06 09:56:05;;;;;;;7.97;3.22;;;3.70;93.30;;;;;;4999491;28;20026;-68
2021/03/06 09:58:31;;;;;;;9.70;3.35;;;3.70;92.60;;;;;;5002263;28;20393;-67
2021/03/06 10:01:11;;;;;;;7.50;3.15;;;3.80;92.90;;;;;;5001292;28;20034;-67
2021/03/06 10:03:37;;;;;;;8.23;2.78;;;3.90;92.40;;;;;;5004733;28;20061;-67
2021/03/06 10:06:05;;;;;;;8.63;3.05;;;4.10;92.30;;;;;;5001668;28;20085;-67
2021/03/06 10:08:35;;;;;;;5.13;2.70;;;4.10;91.80;;;;;;5000708;28;20049;-68
2021/03/06 10:11:01;;;;;;;5.07;2.03;;;4.10;91.80;;;;;;4998350;28;20048;-68
2021/03/06 10:13:27;;;;;;;6.63;2.85;;;3.90;91.40;;;;;;4997452;28;20944;-68
2021/03/06 10:15:54;;;;;;;6.40;2.85;;;4.00;91.70;;;;;;5004473;28;20084;-66
2021/03/06 10:18:20;;;;;;;6.90;2.40;;;4.00;91.60;;;;;;5001244;28;20041;-68
2021/03/06 10:20:48;;;;;;;7.75;3.05;;;3.90;91.70;;;;;;4996539;28;20040;-67
2021/03/06 10:23:15;;;;;;;7.35;3.00;;;3.90;92.00;;;;;;5001056;28;20084;-68
2021/03/06 10:25:40;;;;;;;4.88;2.47;;;4.00;91.90;;;;;;5002981;28;20023;-68
2021/03/06 10:28:12;;;;;;;7.85;4.30;;;4.00;91.50;;;;;;5001567;28;20052;-67
2021/03/06 10:30:40;;;;;;;9.02;4.05;;;4.10;91.20;;;;;;5005421;28;20073;-67
2021/03/06 10:33:18;;;;;;;7.03;2.63;;;4.20;91.00;;;;;;5002129;28;20018;-67
2021/03/06 10:35:49;;;;;;;6.07;3.10;;;4.30;90.40;;;;;;5007016;28;20084;-68
2021/03/06 10:38:36;;;;;;;6.88;2.80;;;4.40;90.30;;;;;;4999876;28;20030;-69
2021/03/06 10:41:04;;;;;;;3.30;1.98;;;4.80;89.50;;;;;;4999272;28;20037;-68
2021/03/06 10:43:39;;;;;;;5.45;2.70;;;5.10;89.40;;;;;;4995955;28;20027;-68
2021/03/06 10:46:11;;;;;;;6.47;2.60;;;5.20;88.20;;;;;;4994826;28;20038;-68
2021/03/06 10:48:37;;;;;;;4.07;2.33;;;5.70;86.30;;;;;;4994988;28;20123;-68
2021/03/06 10:51:04;;;;;;;5.35;2.70;;;5.80;85.60;;;;;;4983985;28;20099;-68
2021/03/06 10:53:31;;;;;;;6.28;2.33;;;5.50;86.10;;;;;;5002394;28;20116;-68
2021/03/06 10:55:57;;;;;;;8.45;2.80;;;5.60;87.20;;;;;;4999908;28;20014;-68
2021/03/06 10:58:45;;;;;;;5.00;2.50;;;5.40;86.50;;;;;;5004404;28;20403;-69
2021/03/06 11:01:12;;;;;;;7.80;2.05;;;5.10;86.90;;;;;;4994872;28;20119;-68
2021/03/06 11:03:50;;;;;;;6.53;2.05;;;5.00;87.60;;;;;;4993578;28;21206;-67
2021/03/06 11:06:18;;;;;;;4.25;1.83;;;5.00;87.70;;;;;;5002750;28;20060;-70
2021/03/06 11:08:43;;;;;;;5.15;1.92;;;5.00;87.50;;;;;;4994247;28;20034;-68
2021/03/06 11:11:10;;;;;;;7.93;3.35;;;5.00;87.60;;;;;;4999194;28;20030;-68
2021/03/06 11:13:45;;;;;;;7.25;2.58;;;5.00;87.70;;;;;;4996027;28;20049;-69
2021/03/06 11:16:13;;;;;;;6.97;2.05;;;4.90;88.30;;;;;;4991104;28;20052;-67
2021/03/06 11:18:40;;;;;;;5.68;1.83;;;5.10;88.40;;;;;;5001065;28;20452;-69
2021/03/06 11:21:13;;;;;;;6.22;2.13;;;5.10;88.80;;;;;;4998885;28;20026;-69
2021/03/06 11:23:40;;;;;;;2.88;1.77;;;5.80;88.20;;;;;;4997000;28;20030;-68
2021/03/06 11:26:06;;;;;;;5.25;3.55;;;5.60;87.20;;;;;;5002489;28;20041;-67
2021/03/06 11:28:32;;;;;;;4.38;1.30;;;6.10;86.10;;;;;;4976466;28;20037;-69
2021/03/06 11:31:00;;;;;;;7.82;1.92;;;6.20;84.30;;;;;;5006977;28;20387;-67
2021/03/06 11:33:26;;;;;;;4.78;1.27;;;7.10;82.90;;;;;;4997253;28;20038;-69
2021/03/06 11:35:52;;;;;;;3.03;0.90;;;7.10;82.50;;;;;;4988793;28;20072;-69
2021/03/06 11:38:20;;;;;;;2.80;1.10;;;6.70;80.80;;;;;;4999324;28;20105;-68
2021/03/06 11:40:49;;;;;;;1.63;1.08;;;6.70;81.90;;;;;;5004426;28;20022;-68
2021/03/06 11:43:15;;;;;;;2.47;1.08;;;7.20;80.20;;;;;;5001064;28;20026;-69
2021/03/06 11:45:41;;;;;;;4.57;1.20;;;7.40;77.80;;;;;;4999632;28;20395;-68
2021/03/06 11:48:07;;;;;;;2.58;0.88;;;7.70;79.20;;;;;;5000302;28;20017;-66
2021/03/06 11:50:39;;;;;;;1.42;0.80;;;7.70;77.30;;;;;;4997219;28;20065;-66
2021/03/06 11:53:05;;;;;;;1.83;0.80;;;7.60;75.90;;;;;;4981923;28;20041;-66
2021/03/06 11:55:32;;;;;;;3.97;0.90;;;7.60;75.70;;;;;;4994176;28;20026;-67
2021/03/06 11:57:57;;;;;;;1.48;0.80;;;7.10;77.70;;;;;;4996058;28;20499;-66
2021/03/06 12:00:25;;;;;;;2.38;0.80;;;6.90;78.50;;;;;;4995900;28;20033;-66
2021/03/06 12:02:51;;;;;;;1.38;0.55;;;6.80;82.20;;;;;;4977686;28;20403;-66
2021/03/06 12:05:18;;;;;;;2.78;0.80;;;6.10;81.90;;;;;;5000272;28;20034;-67
2021/03/06 12:07:45;;;;;;;2.17;1.10;;;5.60;84.50;;;;;;4991492;28;20168;-68
2021/03/06 12:10:13;;;;;;;2.03;0.98;;;5.40;86.30;;;;;;4995037;28;20040;-69
2021/03/06 12:12:39;;;;;;;3.05;0.80;;;5.20;87.90;;;;;;4999835;28;20022;-68
2021/03/06 12:15:07;;;;;;;3.00;1.20;;;5.20;88.20;;;;;;5000012;28;20497;-68
2021/03/06 12:17:33;;;;;;;4.55;1.90;;;5.00;88.70;;;;;;4997153;28;20036;-68
2021/03/06 12:19:59;;;;;;;4.30;1.67;;;4.70;88.60;;;;;;5000754;28;20025;-67
2021/03/06 12:22:25;;;;;;;5.40;1.60;;;4.70;90.40;;;;;;5000986;28;20022;-68
2021/03/06 12:24:50;;;;;;;3.92;1.33;;;4.70;90.60;;;;;;5004857;28;20351;-67
2021/03/06 12:27:16;;;;;;;3.50;1.60;;;4.50;90.30;;;;;;4989693;28;20122;-67
2021/03/06 12:29:43;;;;;;;5.03;1.00;;;4.40;90.70;;;;;;5004178;28;20030;-67
2021/03/06 12:32:09;;;;;;;2.67;0.93;;;4.50;91.60;;;;;;4994693;28;20493;-68
2021/03/06 12:34:35;;;;;;;4.55;1.55;;;4.50;91.20;;;;;;4997725;28;20737;-68
2021/03/06 12:37:02;;;;;;;3.97;1.23;;;4.60;91.30;;;;;;5002735;28;20029;-68
2021/03/06 12:39:27;;;;;;;3.63;1.20;;;4.70;91.20;;;;;;4998813;28;20554;-67
2021/03/06 12:41:53;;;;;;;3.42;1.20;;;4.80;90.90;;;;;;4999790;28;20167;-69
2021/03/06 12:44:20;;;;;;;2.83;1.17;;;4.90;90.90;;;;;;4996737;28;20027;-68